Wetterdaten: aktuell Mittwoch, 07.12.2022 06:30
Datum Zeit Temperatur Feuchte A. Luftdruck Regen Wind Richtung Richtung Taupunkt Windchill Windben
07.12.2022 06:30 1,1 C 100 % 1017,1 hPa 0,0 l/m 0,0 km/h (0 Bft) SO 130 1,1 C 1,1 C 0,0 km/h (0 Bft)
07.12.2022 06:25 1,1 C 100 % 1017,1 hPa 0,0 l/m 0,0 km/h (0 Bft) SO 130 1,1 C 1,1 C 0,0 km/h (0 Bft)
07.12.2022 06:20 1,2 C 100 % 1017,2 hPa 0,0 l/m 0,0 km/h (0 Bft) SO 129 1,2 C 1,2 C 0,0 km/h (0 Bft)
07.12.2022 06:15 1,2 C 100 % 1017,1 hPa 0,0 l/m 0,0 km/h (0 Bft) SO 129 1,2 C 1,2 C 0,0 km/h (0 Bft)
07.12.2022 06:10 1,2 C 100 % 1017,1 hPa 0,0 l/m 0,0 km/h (0 Bft) SO 129 1,2 C 1,2 C 0,0 km/h (0 Bft)
07.12.2022 06:05 1,2 C 100 % 1017,0 hPa 0,0 l/m 0,0 km/h (0 Bft) SO 130 1,2 C 1,2 C 0,0 km/h (0 Bft)
07.12.2022 06:00 1,2 C 100 % 1017,1 hPa 0,0 l/m 0,0 km/h (0 Bft) SO 129 1,2 C 1,2 C 0,0 km/h (0 Bft)
07.12.2022 05:55 1,2 C 100 % 1017,0 hPa 0,0 l/m 0,0 km/h (0 Bft) SO 130 1,2 C 1,2 C 0,0 km/h (0 Bft)
07.12.2022 05:50 1,2 C 100 % 1017,1 hPa 0,0 l/m 0,0 km/h (0 Bft) SO 129 1,2 C 1,2 C 0,0 km/h (0 Bft)
07.12.2022 05:45 1,2 C 100 % 1017,2 hPa 0,0 l/m 0,0 km/h (0 Bft) SO 129 1,2 C 1,2 C 0,0 km/h (0 Bft)
07.12.2022 05:40 1,2 C 100 % 1017,2 hPa 0,0 l/m 0,0 km/h (0 Bft) SO 129 1,2 C 1,2 C 0,0 km/h (0 Bft)
07.12.2022 05:35 1,2 C 100 % 1017,0 hPa 0,0 l/m 0,0 km/h (0 Bft) SO 129 1,2 C 1,2 C 0,0 km/h (0 Bft)
07.12.2022 05:30 1,2 C 100 % 1017,2 hPa 0,0 l/m 0,0 km/h (0 Bft) SO 130 1,2 C 1,2 C 0,0 km/h (0 Bft)
07.12.2022 05:25 1,2 C 100 % 1017,3 hPa 0,0 l/m 0,0 km/h (0 Bft) SO 130 1,2 C 1,2 C 0,0 km/h (0 Bft)
07.12.2022 05:20 1,3 C 100 % 1017,2 hPa 0,0 l/m 0,0 km/h (0 Bft) SO 129 1,3 C 1,3 C 0,0 km/h (0 Bft)
07.12.2022 05:15 1,2 C 100 % 1017,2 hPa 0,0 l/m 0,0 km/h (0 Bft) SO 129 1,2 C 1,2 C 0,0 km/h (0 Bft)
07.12.2022 05:10 1,2 C 100 % 1017,2 hPa 0,0 l/m 0,0 km/h (0 Bft) SO 129 1,2 C 1,2 C 0,0 km/h (0 Bft)
07.12.2022 05:05 1,3 C 100 % 1017,1 hPa 0,0 l/m 0,0 km/h (0 Bft) SO 129 1,3 C 1,3 C 0,0 km/h (0 Bft)
07.12.2022 05:00 1,2 C 100 % 1017,2 hPa 0,0 l/m 0,0 km/h (0 Bft) SO 137 1,2 C 1,2 C 0,0 km/h (0 Bft)
07.12.2022 04:55 1,2 C 100 % 1017,2 hPa 0,0 l/m 0,2 km/h (0 Bft) SO 137 1,2 C 1,2 C 3,2 km/h (1 Bft)
07.12.2022 04:50 1,2 C 100 % 1017,2 hPa 0,0 l/m 0,0 km/h (0 Bft) O 81 1,2 C 1,2 C 0,0 km/h (0 Bft)
07.12.2022 04:45 1,2 C 100 % 1017,2 hPa 0,0 l/m 0,0 km/h (0 Bft) O 81 1,2 C 1,2 C 0,0 km/h (0 Bft)
07.12.2022 04:40 1,2 C 100 % 1017,2 hPa 0,0 l/m 0,0 km/h (0 Bft) O 82 1,2 C 1,2 C 0,0 km/h (0 Bft)
07.12.2022 04:35 1,2 C 100 % 1017,3 hPa 0,0 l/m 0,0 km/h (0 Bft) O-NO 62 1,2 C 1,2 C 0,0 km/h (0 Bft)
07.12.2022 04:30 1,2 C 100 % 1017,2 hPa 0,0 l/m 0,0 km/h (0 Bft) O-NO 62 1,2 C 1,2 C 0,0 km/h (0 Bft)
07.12.2022 04:25 1,2 C 100 % 1017,2 hPa 0,0 l/m 0,0 km/h (0 Bft) O-NO 62 1,2 C 1,2 C 0,0 km/h (0 Bft)
07.12.2022 04:20 1,2 C 100 % 1017,2 hPa 0,0 l/m 0,0 km/h (0 Bft) O-NO 63 1,2 C 1,2 C 0,0 km/h (0 Bft)
07.12.2022 04:15 1,2 C 100 % 1017,2 hPa 0,0 l/m 0,0 km/h (0 Bft) O-NO 62 1,2 C 1,2 C 0,0 km/h (0 Bft)
07.12.2022 04:10 1,2 C 100 % 1017,3 hPa 0,0 l/m 0,0 km/h (0 Bft) O-NO 62 1,2 C 1,2 C 0,0 km/h (0 Bft)
07.12.2022 04:05 1,2 C 100 % 1017,3 hPa 0,0 l/m 0,0 km/h (0 Bft) O-NO 62 1,2 C 1,2 C 0,0 km/h (0 Bft)
07.12.2022 04:00 1,2 C 100 % 1017,3 hPa 0,0 l/m 0,0 km/h (0 Bft) O-NO 62 1,2 C 1,2 C 0,0 km/h (0 Bft)
07.12.2022 03:55 1,2 C 100 % 1017,4 hPa 0,0 l/m 0,0 km/h (0 Bft) O-NO 62 1,2 C 1,2 C 0,0 km/h (0 Bft)
07.12.2022 03:50 1,3 C 100 % 1017,4 hPa 0,0 l/m 0,0 km/h (0 Bft) O-NO 62 1,3 C 1,3 C 0,0 km/h (0 Bft)
07.12.2022 03:45 1,3 C 100 % 1017,4 hPa 0,0 l/m 0,0 km/h (0 Bft) O-NO 62 1,3 C 1,3 C 0,0 km/h (0 Bft)
07.12.2022 03:40 1,3 C 100 % 1017,4 hPa 0,0 l/m 0,0 km/h (0 Bft) O-NO 63 1,3 C 1,3 C 0,0 km/h (0 Bft)
07.12.2022 03:35 1,3 C 100 % 1017,5 hPa 0,0 l/m 0,0 km/h (0 Bft) O-NO 63 1,3 C 1,3 C 0,0 km/h (0 Bft)
07.12.2022 03:30 1,4 C 100 % 1017,4 hPa 0,0 l/m 0,0 km/h (0 Bft) O-NO 62 1,4 C 1,4 C 0,0 km/h (0 Bft)
07.12.2022 03:25 1,4 C 100 % 1017,4 hPa 0,0 l/m 0,0 km/h (0 Bft) O-NO 62 1,4 C 1,4 C 0,0 km/h (0 Bft)
07.12.2022 03:20 1,4 C 100 % 1017,4 hPa 0,0 l/m 0,0 km/h (0 Bft) O-NO 62 1,4 C 1,4 C 0,0 km/h (0 Bft)
07.12.2022 03:15 1,4 C 100 % 1017,5 hPa 0,0 l/m 0,0 km/h (0 Bft) O-NO 62 1,4 C 1,4 C 0,0 km/h (0 Bft)
07.12.2022 03:10 1,4 C 100 % 1017,4 hPa 0,0 l/m 0,0 km/h (0 Bft) O-NO 63 1,4 C 1,4 C 0,0 km/h (0 Bft)
07.12.2022 03:05 1,5 C 100 % 1017,5 hPa 0,0 l/m 0,0 km/h (0 Bft) O-NO 62 1,5 C 1,5 C 0,0 km/h (0 Bft)
07.12.2022 03:00 1,5 C 100 % 1017,4 hPa 0,0 l/m 0,0 km/h (0 Bft) O-NO 62 1,5 C 1,5 C 0,0 km/h (0 Bft)
07.12.2022 02:55 1,5 C 100 % 1017,6 hPa 0,0 l/m 0,0 km/h (0 Bft) O-NO 62 1,5 C 1,5 C 0,0 km/h (0 Bft)
07.12.2022 02:50 1,5 C 100 % 1017,6 hPa 0,0 l/m 0,0 km/h (0 Bft) O-NO 62 1,5 C 1,5 C 0,0 km/h (0 Bft)
07.12.2022 02:45 1,6 C 100 % 1017,5 hPa 0,0 l/m 0,0 km/h (0 Bft) O-NO 63 1,6 C 1,6 C 0,0 km/h (0 Bft)
07.12.2022 02:40 1,6 C 100 % 1017,6 hPa 0,0 l/m 0,0 km/h (0 Bft) O-NO 63 1,6 C 1,6 C 0,0 km/h (0 Bft)
07.12.2022 02:35 1,6 C 100 % 1017,7 hPa 0,0 l/m 0,0 km/h (0 Bft) O-NO 62 1,6 C 1,6 C 0,0 km/h (0 Bft)
07.12.2022 02:30 1,6 C 100 % 1017,7 hPa 0,0 l/m 0,0 km/h (0 Bft) O-NO 63 1,6 C 1,6 C 0,0 km/h (0 Bft)
07.12.2022 02:25 1,6 C 100 % 1017,7 hPa 0,0 l/m 0,0 km/h (0 Bft) O-NO 62 1,6 C 1,6 C 0,0 km/h (0 Bft)
07.12.2022 02:20 1,5 C 100 % 1017,7 hPa 0,0 l/m 0,0 km/h (0 Bft) O-NO 62 1,5 C 1,5 C 0,0 km/h (0 Bft)
07.12.2022 02:15 1,6 C 100 % 1017,6 hPa 0,0 l/m 0,0 km/h (0 Bft) O-NO 62 1,6 C 1,6 C 0,0 km/h (0 Bft)
07.12.2022 02:10 1,6 C 100 % 1017,7 hPa 0,0 l/m 0,0 km/h (0 Bft) O-NO 63 1,6 C 1,6 C 0,0 km/h (0 Bft)
07.12.2022 02:05 1,6 C 100 % 1017,7 hPa 0,0 l/m 0,0 km/h (0 Bft) O-NO 63 1,6 C 1,6 C 0,0 km/h (0 Bft)
07.12.2022 02:00 1,6 C 100 % 1017,7 hPa 0,0 l/m 0,0 km/h (0 Bft) O-NO 62 1,6 C 1,6 C 0,0 km/h (0 Bft)
07.12.2022 01:55 1,6 C 100 % 1017,8 hPa 0,0 l/m 0,0 km/h (0 Bft) O-SO 116 1,6 C 1,6 C 0,0 km/h (0 Bft)
07.12.2022 01:50 1,6 C 100 % 1017,7 hPa 0,0 l/m 0,0 km/h (0 Bft) O-SO 113 1,6 C 1,6 C 0,0 km/h (0 Bft)
07.12.2022 01:45 1,6 C 100 % 1017,7 hPa 0,0 l/m 0,0 km/h (0 Bft) O-SO 113 1,6 C 1,6 C 0,0 km/h (0 Bft)
07.12.2022 01:40 1,6 C 100 % 1017,7 hPa 0,0 l/m 0,0 km/h (0 Bft) O-SO 113 1,6 C 1,6 C 0,0 km/h (0 Bft)
07.12.2022 01:35 1,6 C 100 % 1017,7 hPa 0,0 l/m 0,0 km/h (0 Bft) O-SO 113 1,6 C 1,6 C 0,0 km/h (0 Bft)
07.12.2022 01:30 1,6 C 100 % 1017,7 hPa 0,0 l/m 0,0 km/h (0 Bft) O-SO 113 1,6 C 1,6 C 0,0 km/h (0 Bft)
07.12.2022 01:25 1,6 C 100 % 1017,7 hPa 0,0 l/m 0,0 km/h (0 Bft) O-SO 113 1,6 C 1,6 C 0,0 km/h (0 Bft)
07.12.2022 01:20 1,6 C 100 % 1017,6 hPa 0,0 l/m 0,0 km/h (0 Bft) O-SO 113 1,6 C 1,6 C 0,0 km/h (0 Bft)
07.12.2022 01:15 1,6 C 100 % 1017,8 hPa 0,0 l/m 0,0 km/h (0 Bft) O-SO 113 1,6 C 1,6 C 1,6 km/h (1 Bft)
07.12.2022 01:10 1,6 C 100 % 1017,8 hPa 0,0 l/m 0,7 km/h (0 Bft) O-SO 113 1,6 C 1,6 C 3,2 km/h (1 Bft)
07.12.2022 01:05 1,6 C 100 % 1017,8 hPa 0,0 l/m 0,2 km/h (0 Bft) NO 35 1,6 C 1,6 C 1,6 km/h (1 Bft)
07.12.2022 01:00 1,6 C 100 % 1017,8 hPa 0,0 l/m 0,4 km/h (0 Bft) NO 35 1,6 C 1,6 C 3,2 km/h (1 Bft)
07.12.2022 00:55 1,6 C 100 % 1017,9 hPa 0,0 l/m 0,1 km/h (0 Bft) N 354 1,6 C 1,6 C 1,6 km/h (1 Bft)
07.12.2022 00:50 1,7 C 100 % 1018,0 hPa 0,0 l/m 0,0 km/h (0 Bft) N-NW 344 1,7 C 1,7 C 0,0 km/h (0 Bft)
07.12.2022 00:45 1,6 C 100 % 1018,0 hPa 0,0 l/m 0,0 km/h (0 Bft) N 359 1,6 C 1,6 C 0,0 km/h (0 Bft)
07.12.2022 00:40 1,7 C 100 % 1017,9 hPa 0,0 l/m 0,4 km/h (0 Bft) N 359 1,7 C 1,7 C 3,2 km/h (1 Bft)
07.12.2022 00:35 1,7 C 100 % 1018,0 hPa 0,0 l/m 0,1 km/h (0 Bft) NW 320 1,7 C 1,7 C 1,6 km/h (1 Bft)
07.12.2022 00:30 1,7 C 100 % 1018,0 hPa 0,0 l/m 0,7 km/h (0 Bft) W-NW 299 1,7 C 1,7 C 3,2 km/h (1 Bft)
07.12.2022 00:25 1,7 C 100 % 1018,0 hPa 0,0 l/m 0,0 km/h (0 Bft) W-NW 300 1,7 C 1,7 C 0,0 km/h (0 Bft)
07.12.2022 00:20 1,7 C 100 % 1018,1 hPa 0,0 l/m 0,0 km/h (0 Bft) W-NW 288 1,7 C 1,7 C 0,0 km/h (0 Bft)
07.12.2022 00:15 1,7 C 100 % 1018,1 hPa 0,0 l/m 0,1 km/h (0 Bft) W-NW 288 1,7 C 1,7 C 1,6 km/h (1 Bft)
07.12.2022 00:10 1,7 C 100 % 1018,0 hPa 0,0 l/m 0,0 km/h (0 Bft) W-NW 288 1,7 C 1,7 C 0,0 km/h (0 Bft)
07.12.2022 00:05 1,7 C 100 % 1018,0 hPa 0,0 l/m 0,1 km/h (0 Bft) W-NW 287 1,7 C 1,7 C 1,6 km/h (1 Bft)
07.12.2022 00:00 1,7 C 100 % 1018,0 hPa 0,0 l/m 0,1 km/h (0 Bft) W-NW 287 1,7 C 1,7 C 1,6 km/h (1 Bft)
06.12.2022 23:55 1,7 C 100 % 1018,0 hPa 0,0 l/m 0,0 km/h (0 Bft) W-NW 287 1,7 C 1,7 C 1,6 km/h (1 Bft)
06.12.2022 23:50 1,7 C 100 % 1018,0 hPa 0,0 l/m 0,0 km/h (0 Bft) W-NW 288 1,7 C 1,7 C 0,0 km/h (0 Bft)
06.12.2022 23:45 1,7 C 100 % 1018,0 hPa 0,0 l/m 0,2 km/h (0 Bft) W-NW 287 1,7 C 1,7 C 3,2 km/h (1 Bft)
06.12.2022 23:40 1,8 C 100 % 1018,0 hPa 0,0 l/m 0,5 km/h (0 Bft) W 280 1,8 C 1,8 C 3,2 km/h (1 Bft)
06.12.2022 23:35 1,8 C 100 % 1018,0 hPa 0,0 l/m 0,0 km/h (0 Bft) W-SW 257 1,8 C 1,8 C 0,0 km/h (0 Bft)
06.12.2022 23:30 1,8 C 100 % 1018,0 hPa 0,0 l/m 0,0 km/h (0 Bft) W-SW 257 1,8 C 1,8 C 0,0 km/h (0 Bft)
06.12.2022 23:25 1,8 C 100 % 1017,9 hPa 0,0 l/m 0,0 km/h (0 Bft) W-SW 257 1,8 C 1,8 C 0,0 km/h (0 Bft)
06.12.2022 23:20 1,8 C 100 % 1018,0 hPa 0,0 l/m 0,0 km/h (0 Bft) W-SW 244 1,8 C 1,8 C 0,0 km/h (0 Bft)
06.12.2022 23:15 1,8 C 100 % 1018,1 hPa 0,0 l/m 0,0 km/h (0 Bft) W-SW 240 1,8 C 1,8 C 0,0 km/h (0 Bft)
06.12.2022 23:10 1,8 C 100 % 1017,9 hPa 0,0 l/m 0,0 km/h (0 Bft) W-NW 291 1,8 C 1,8 C 0,0 km/h (0 Bft)
06.12.2022 23:05 1,8 C 100 % 1018,0 hPa 0,0 l/m 0,0 km/h (0 Bft) W-NW 291 1,8 C 1,8 C 0,0 km/h (0 Bft)
06.12.2022 23:00 1,8 C 100 % 1018,0 hPa 0,0 l/m 0,0 km/h (0 Bft) W-NW 291 1,8 C 1,8 C 0,0 km/h (0 Bft)
06.12.2022 22:55 1,8 C 100 % 1018,0 hPa 0,0 l/m 0,0 km/h (0 Bft) W-NW 289 1,8 C 1,8 C 0,0 km/h (0 Bft)
06.12.2022 22:50 1,8 C 100 % 1018,0 hPa 0,0 l/m 0,0 km/h (0 Bft) W-NW 289 1,8 C 1,8 C 0,0 km/h (0 Bft)
06.12.2022 22:45 1,8 C 100 % 1018,0 hPa 0,0 l/m 0,0 km/h (0 Bft) N 359 1,8 C 1,8 C 0,0 km/h (0 Bft)
06.12.2022 22:40 1,8 C 100 % 1018,0 hPa 0,0 l/m 0,0 km/h (0 Bft) N-NW 346 1,8 C 1,8 C 1,6 km/h (1 Bft)
06.12.2022 22:35 1,8 C 100 % 1017,9 hPa 0,0 l/m 0,0 km/h (0 Bft) N-NW 343 1,8 C 1,8 C 1,6 km/h (1 Bft)
06.12.2022 22:30 1,8 C 100 % 1017,9 hPa 0,0 l/m 0,0 km/h (0 Bft) N 359 1,8 C 1,8 C 0,0 km/h (0 Bft)
06.12.2022 22:25 1,8 C 100 % 1018,0 hPa 0,0 l/m 0,9 km/h (0 Bft) N-NW 343 1,8 C 1,8 C 6,4 km/h (2 Bft)
06.12.2022 22:20 1,9 C 100 % 1018,0 hPa 0,0 l/m 0,3 km/h (0 Bft) W-NW 294 1,9 C 1,9 C 1,6 km/h (1 Bft)
06.12.2022 22:15 1,9 C 100 % 1017,9 hPa 0,0 l/m 0,9 km/h (0 Bft) W-NW 301 1,9 C 1,9 C 6,4 km/h (2 Bft)
_ Min-Zeit 06:25 07:00 05:35 - 07:00 - - 06:25 06:25 07:00
Minimum _ 1,1 C 100 % 1017,0 hPa - 0,0 km/h (0 Bft) - - 1,1 C 1,1 C 0,0 km/h (0 Bft)
_ Max-Zeit 12:20 07:00 08:40 09:10 09:25 - - 12:20 12:20 15:05
Maximum _ 3,1 C 100 % 1019,6 hPa 0,2 l/m 2,9 km/h
O (1 Bft)
- - 3,1 C 3,1 C 6,4 km/h
O-NO (2 Bft)
Durchschnitt _ 2,0 C 100 % 1018,1 hPa #1,0 l/m 0,1 km/h (0 Bft) O-NO - 2,0 C 2,0 C 0,6 km/h (0 Bft)